الصفحة الرئيسية
METAR-TAF:

METAR-TAF

مطار :

Maré, نيو كاليدونيا

دائرة عرض: 21-28-53S, خط طول: 168-02-15E, ارتفاع: 42 متر

METAR: مفقودة

زمن: 08:04 (21:04 UTC)

توقعات

تاريخ ووقت الإصدار 4ساعات و 4 دقيقة قبل الساعة 17:00UTC
التوقعات صالحة من29 الساعة 18 UTC إلى 30 الساعة 18 UTC
ريح 2 عقدةمن اتجاهات متغيرة
الرؤية 10 كم أو أكثر
غيوم قليلة على ارتفاع 1500 قدم
غيوم مفككة على ارتفاع 4000 قدم
مؤقت
من 29 الساعة 18 UTC إلى 29 الساعة 24 UTC
الرؤية: 4000 متر
غيوم مفككة على ارتفاع 1400 قدم
زخات من المطر

TAF: NWWR 291700Z 2918/3018 VRB02KT 9999 FEW015 BKN040 TEMPO 2918/2924 4000 SHRA BKN014

أرصاد الطقس والتوقعات من أكثر من 4000 مطار (تقارير الطقس للمطار METAR والتنبؤ بالطقس بالمطارTAF).

المحطات المتاحة هي النقط الصفراء والحمراء على الخريطة.

حرك المؤشر فوق النقطة لمعرفة اسم المحطة.

ثم انقر لمعرفة أرصاد وتوقعات الطقس.

لتغيير الخارطة: اضغط على الأزرار الخضراء مع رمز الصليب الأسود للتكبير. على الزر الأخضر مع شرطة للتصغير، أو على الأسهم الخضراء للخرائط المجاورة.


METAR-TAF: